createdAt,value
2022-11-21T04:46:50.026Z,99.90
2022-11-21T04:49:16.749Z,99.90
2022-11-21T04:51:43.511Z,99.90
2022-11-21T04:54:11.691Z,99.90
2022-11-21T04:56:38.435Z,99.90
2022-11-21T04:59:05.127Z,99.90
2022-11-21T05:01:31.889Z,99.90
2022-11-21T05:12:20.663Z,99.90
2022-11-21T05:26:12.279Z,99.90
2022-11-21T05:28:39.085Z,99.90
2022-11-21T05:31:05.916Z,99.90
2022-11-21T05:33:32.762Z,99.90
2022-11-21T05:35:59.555Z,99.90
2022-11-21T05:38:26.321Z,99.90
2022-11-21T05:40:53.345Z,99.90
2022-11-21T05:43:42.963Z,99.90
2022-11-21T05:46:09.814Z,99.90
2022-11-21T05:48:36.979Z,99.90
2022-11-21T05:51:06.744Z,99.90
2022-11-21T05:53:35.134Z,99.90
2022-11-21T05:56:13.293Z,99.90
2022-11-21T05:58:40.699Z,99.90
2022-11-21T06:01:09.400Z,99.90
2022-11-21T06:03:38.743Z,99.90
2022-11-21T06:06:08.598Z,99.90
2022-11-21T06:08:46.173Z,99.90
2022-11-21T06:11:15.436Z,99.90
2022-11-21T06:13:42.609Z,99.90
2022-11-21T06:16:12.324Z,99.90
2022-11-21T06:18:41.377Z,99.90
2022-11-21T06:21:16.350Z,99.90
2022-11-21T06:23:43.136Z,99.90
2022-11-21T06:26:13.933Z,99.90
2022-11-21T06:28:42.306Z,99.90
2022-11-21T06:31:13.374Z,99.90
2022-11-21T06:33:41.069Z,99.90
2022-11-21T06:36:12.892Z,99.90
2022-11-21T06:38:40.168Z,99.90
2022-11-21T06:41:11.636Z,99.90
2022-11-21T06:43:38.474Z,99.90
2022-11-21T06:46:05.315Z,99.90
2022-11-21T06:48:33.274Z,99.90
2022-11-21T06:51:13.607Z,99.90
2022-11-21T06:53:40.374Z,99.90
2022-11-21T06:56:07.118Z,99.90
2022-11-21T06:58:33.901Z,99.90
2022-11-21T07:01:05.673Z,99.90
2022-11-21T07:03:32.643Z,99.90
2022-11-21T07:06:01.722Z,99.90
2022-11-21T07:08:29.828Z,99.90
2022-11-21T07:11:23.778Z,99.90
2022-11-21T07:13:47.067Z,99.90
2022-11-21T07:16:16.521Z,99.90
2022-11-21T07:18:44.541Z,99.90
2022-11-21T07:21:11.437Z,99.90
2022-11-21T07:23:38.403Z,99.90
2022-11-21T07:26:07.630Z,99.90
2022-11-21T07:28:35.318Z,99.90
2022-11-21T07:31:06.972Z,99.90
2022-11-21T07:33:35.403Z,99.90
2022-11-21T07:36:02.277Z,99.90
2022-11-21T07:38:29.008Z,99.90
2022-11-21T07:40:58.652Z,99.90
2022-11-21T07:43:25.401Z,99.90
2022-11-21T07:45:52.101Z,99.90
2022-11-21T07:48:18.878Z,99.90
2022-11-21T07:50:45.572Z,99.90
2022-11-21T07:53:13.486Z,99.90
2022-11-21T07:55:40.924Z,99.90
2022-11-21T07:58:11.190Z,99.90
2022-11-21T08:00:40.826Z,99.90
2022-11-21T08:03:07.929Z,99.90
2022-11-21T08:05:39.368Z,99.90
2022-11-21T08:08:07.288Z,99.90
2022-11-21T08:10:37.320Z,99.90
2022-11-21T08:13:04.030Z,99.90
2022-11-21T08:15:30.793Z,99.90
2022-11-21T08:17:57.549Z,99.90
2022-11-21T08:20:24.360Z,99.90
2022-11-21T08:22:51.256Z,99.90
2022-11-21T08:25:18.116Z,99.90
2022-11-21T08:27:44.925Z,99.90
2022-11-21T08:30:12.478Z,99.90
2022-11-21T08:32:39.341Z,99.90
2022-11-21T08:35:06.668Z,99.90
2022-11-21T08:37:33.626Z,99.90
2022-11-21T08:40:00.861Z,99.90
2022-11-21T08:42:27.822Z,99.90
2022-11-21T08:44:54.589Z,99.90
2022-11-21T08:47:21.869Z,99.90
2022-11-21T08:49:49.035Z,99.90
2022-11-21T08:52:17.502Z,99.90
2022-11-21T08:54:45.107Z,99.90
2022-11-21T08:57:12.726Z,99.90
2022-11-21T08:59:39.699Z,99.90
2022-11-21T09:02:06.949Z,99.90
2022-11-21T09:04:33.828Z,99.90
2022-11-21T09:07:02.160Z,99.90
2022-11-21T09:09:29.012Z,99.90
2022-11-21T09:11:55.757Z,99.90
2022-11-21T09:14:41.230Z,99.90
2022-11-21T09:17:33.965Z,99.90
2022-11-21T09:20:00.724Z,99.90
2022-11-21T09:22:27.579Z,99.90
2022-11-21T09:24:54.590Z,99.90
2022-11-21T09:27:21.365Z,99.90
2022-11-21T09:29:52.457Z,99.90
2022-11-21T09:32:21.338Z,99.90
2022-11-21T09:34:48.421Z,99.90
2022-11-21T09:37:15.480Z,99.90
2022-11-21T09:39:42.210Z,99.90
2022-11-21T09:42:33.998Z,99.90
2022-11-21T09:45:07.732Z,99.90
2022-11-21T09:47:49.817Z,99.90
2022-11-21T09:50:21.515Z,99.90
2022-11-21T09:53:03.346Z,99.90
2022-11-21T09:55:41.930Z,99.90
2022-11-21T09:58:32.930Z,99.90
2022-11-21T10:00:59.777Z,99.90
2022-11-21T10:03:30.851Z,99.90
2022-11-21T10:06:14.463Z,99.90
2022-11-21T10:08:41.284Z,99.90
2022-11-21T10:11:29.186Z,99.90
2022-11-21T10:14:24.091Z,99.90
2022-11-21T10:17:01.827Z,99.90
2022-11-21T10:19:37.326Z,99.90
2022-11-21T10:22:27.136Z,99.10
2022-11-21T10:24:59.876Z,97.30
2022-11-21T10:27:36.745Z,97.40
2022-11-21T10:30:07.032Z,95.90
2022-11-21T10:32:40.550Z,94.60
2022-11-21T10:35:22.869Z,95.80
2022-11-21T10:38:01.842Z,94.80
2022-11-21T10:40:47.620Z,94.80
2022-11-21T10:43:42.048Z,95.50
2022-11-21T10:46:09.359Z,96.30
2022-11-21T10:48:36.244Z,97.00
2022-11-21T10:51:38.016Z,95.20
2022-11-21T10:54:31.826Z,93.50
2022-11-21T10:57:00.587Z,92.20
2022-11-21T10:59:31.131Z,93.00
2022-11-21T11:02:19.696Z,92.30
2022-11-21T11:04:52.003Z,93.60
2022-11-21T11:07:22.379Z,96.80
2022-11-21T11:09:49.570Z,97.30
2022-11-21T11:12:49.616Z,98.40
2022-11-21T11:15:25.335Z,99.30
2022-11-21T11:18:09.126Z,98.40
2022-11-21T11:20:44.969Z,98.90
2022-11-21T11:23:25.261Z,98.30
2022-11-21T11:26:00.357Z,98.10
2022-11-21T11:28:35.342Z,98.70
2022-11-21T11:31:02.618Z,97.20
2022-11-21T11:33:55.886Z,98.60
2022-11-21T11:36:33.877Z,97.30
2022-11-21T11:39:10.474Z,94.40
2022-11-21T11:42:21.098Z,91.90
2022-11-21T11:45:18.454Z,89.70
2022-11-21T11:47:56.078Z,89.20
2022-11-21T11:50:30.989Z,88.30
2022-11-21T11:53:02.664Z,89.10
2022-11-21T11:55:37.790Z,90.20
2022-11-21T11:58:14.197Z,90.40
2022-11-21T12:00:50.010Z,90.00
2022-11-21T12:03:21.849Z,91.40
2022-11-21T12:06:21.687Z,91.00
2022-11-21T12:08:59.640Z,92.00
2022-11-21T12:12:00.926Z,92.50
2022-11-21T12:15:23.983Z,92.70
2022-11-21T12:18:15.377Z,92.90
2022-11-21T12:20:54.219Z,93.90
2022-11-21T12:23:24.067Z,93.90
2022-11-21T12:26:00.732Z,92.90
2022-11-21T12:28:47.841Z,92.70
2022-11-21T12:31:30.881Z,93.50
2022-11-21T12:34:22.614Z,94.70
2022-11-21T12:36:58.258Z,96.30
2022-11-21T12:39:36.958Z,97.90
2022-11-21T12:42:38.229Z,98.10
2022-11-21T12:45:33.862Z,97.40
2022-11-21T12:48:38.274Z,98.40
2022-11-21T12:51:32.577Z,98.90
2022-11-21T12:54:35.892Z,99.00
2022-11-21T12:57:02.548Z,99.10
2022-11-21T12:59:35.666Z,98.60
2022-11-21T13:02:31.926Z,99.30
2022-11-21T13:05:00.507Z,98.90
2022-11-21T13:07:31.971Z,99.40
2022-11-21T13:10:01.388Z,97.20
2022-11-21T13:12:44.329Z,96.70
2022-11-21T13:15:32.808Z,97.70
2022-11-21T13:18:15.573Z,97.50
2022-11-21T13:20:48.752Z,98.40
2022-11-21T13:23:35.675Z,99.90
2022-11-21T13:26:03.015Z,99.90
2022-11-21T13:28:31.888Z,99.90
2022-11-21T13:31:01.252Z,99.90
2022-11-21T13:33:39.506Z,99.90
2022-11-21T13:36:27.992Z,99.90
2022-11-21T13:38:54.643Z,99.90
2022-11-21T13:41:55.057Z,99.90
2022-11-21T13:44:31.537Z,99.90
2022-11-21T13:47:10.113Z,99.90
2022-11-21T13:50:03.099Z,99.90
2022-11-21T13:52:49.527Z,99.90
2022-11-21T13:55:28.299Z,99.90
2022-11-21T13:58:20.917Z,99.90
2022-11-21T14:01:09.360Z,99.90
2022-11-21T14:03:57.616Z,99.90
2022-11-21T14:06:43.543Z,99.90
2022-11-21T14:09:13.253Z,99.90
2022-11-21T14:11:59.890Z,99.90
2022-11-21T14:14:40.434Z,99.90
2022-11-21T14:17:22.195Z,99.90
2022-11-21T14:19:49.693Z,99.90
2022-11-21T14:22:35.496Z,99.90
2022-11-21T14:25:13.884Z,99.90
2022-11-21T14:27:45.382Z,99.90
2022-11-21T14:30:32.175Z,99.90
2022-11-21T14:33:21.236Z,99.90
2022-11-21T14:36:10.845Z,99.90
2022-11-21T14:38:42.410Z,99.90
2022-11-21T14:41:27.659Z,99.90
2022-11-21T14:43:57.380Z,99.90
2022-11-21T14:46:26.595Z,99.90
2022-11-21T14:48:53.787Z,99.90
2022-11-21T14:51:23.696Z,99.90
2022-11-21T14:53:53.715Z,99.90
2022-11-21T14:56:26.338Z,99.90
2022-11-21T14:58:55.354Z,99.90
2022-11-21T15:01:30.853Z,99.90
2022-11-21T15:04:06.527Z,99.90
2022-11-21T15:06:42.218Z,99.90
2022-11-21T15:12:05.756Z,99.90
2022-11-21T15:15:02.760Z,99.90
2022-11-21T15:17:30.137Z,99.90
2022-11-21T15:20:12.280Z,99.90
2022-11-21T15:22:41.385Z,99.90
2022-11-21T15:25:15.990Z,99.90
2022-11-21T15:27:43.747Z,99.90
2022-11-21T15:30:10.398Z,99.90
2022-11-21T15:33:00.949Z,99.90
2022-11-21T15:38:41.729Z,99.90
2022-11-21T15:41:08.426Z,99.90
2022-11-21T15:43:48.175Z,99.90
2022-11-21T15:46:22.722Z,99.90
2022-11-21T15:48:54.925Z,99.90
2022-11-21T15:51:51.359Z,99.90
2022-11-21T15:54:16.749Z,99.90
2022-11-21T15:56:43.977Z,99.90
2022-11-21T15:57:12.526Z,99.90
2022-11-21T15:59:10.918Z,99.90
2022-11-21T16:01:37.833Z,99.90
2022-11-21T16:04:07.180Z,99.90
2022-11-21T16:06:34.742Z,99.90
2022-11-21T16:09:02.620Z,99.90
2022-11-21T16:11:31.916Z,99.90
2022-11-21T16:14:03.393Z,99.90
2022-11-21T16:16:33.394Z,99.90
2022-11-21T16:19:00.811Z,99.90
2022-11-21T16:21:27.500Z,99.90
2022-11-21T16:23:55.531Z,99.90
2022-11-21T16:26:27.681Z,99.90
2022-11-21T16:28:59.034Z,99.90
2022-11-21T16:31:28.550Z,99.90
2022-11-21T16:33:55.875Z,99.90
2022-11-21T16:36:28.648Z,99.90
2022-11-21T16:39:00.431Z,99.90
2022-11-21T16:41:30.299Z,99.90
2022-11-21T16:43:57.081Z,99.90
2022-11-21T16:46:25.124Z,99.90
2022-11-21T16:49:00.557Z,99.90
2022-11-21T16:51:27.725Z,99.90
2022-11-21T16:53:54.695Z,99.90
2022-11-21T16:56:21.518Z,99.90
2022-11-21T16:58:48.271Z,99.90
2022-11-21T17:01:26.318Z,99.90
2022-11-21T17:03:53.375Z,99.90
2022-11-21T17:06:28.927Z,99.90
2022-11-21T17:08:55.692Z,99.90
2022-11-21T17:11:28.853Z,99.90
2022-11-21T17:13:57.158Z,99.90
2022-11-21T17:16:24.172Z,99.90
2022-11-21T17:18:55.333Z,99.90
2022-11-21T17:21:22.625Z,99.90
2022-11-21T17:23:49.625Z,99.90
2022-11-21T17:26:19.360Z,99.90
2022-11-21T17:28:52.109Z,99.90
2022-11-21T17:31:19.323Z,99.90
2022-11-21T17:33:50.186Z,99.90
2022-11-21T17:36:22.160Z,99.90
2022-11-21T17:38:50.174Z,99.90
2022-11-21T17:41:19.388Z,99.90
2022-11-21T17:43:47.269Z,99.90
2022-11-21T17:46:19.988Z,99.90
2022-11-21T17:48:54.562Z,99.90
2022-11-21T17:51:34.776Z,99.90
2022-11-21T17:54:02.327Z,99.90
2022-11-21T17:56:31.758Z,99.90
2022-11-21T17:58:58.730Z,99.90
2022-11-21T18:01:25.707Z,99.90
2022-11-21T18:03:56.942Z,99.90
2022-11-21T18:06:25.051Z,99.90
2022-11-21T18:08:51.787Z,99.90
2022-11-21T18:11:23.868Z,99.90
2022-11-21T18:13:50.964Z,99.90
2022-11-21T18:16:21.681Z,99.90
2022-11-21T18:18:49.777Z,99.90
2022-11-21T18:21:19.038Z,99.90
2022-11-21T18:23:47.213Z,99.90
2022-11-21T18:26:22.590Z,99.90
2022-11-21T18:29:01.804Z,99.90
2022-11-21T18:31:38.377Z,99.90
2022-11-21T18:34:06.627Z,99.90
2022-11-21T18:36:33.438Z,99.90
2022-11-21T18:39:07.336Z,99.90
2022-11-21T18:41:37.763Z,99.90
2022-11-21T18:44:06.495Z,99.90
2022-11-21T18:46:36.092Z,99.90
2022-11-21T18:49:06.372Z,99.90
2022-11-21T18:51:34.073Z,99.90
2022-11-21T18:54:05.442Z,99.90
2022-11-21T18:56:32.459Z,99.90
2022-11-21T18:58:59.668Z,99.90
2022-11-21T19:01:28.806Z,99.90
2022-11-21T19:03:56.502Z,99.90
2022-11-21T19:06:25.499Z,99.90
2022-11-21T19:08:53.959Z,99.90
2022-11-21T19:11:24.268Z,99.90
2022-11-21T19:13:52.003Z,99.90
2022-11-21T19:16:21.303Z,99.90
2022-11-21T19:19:05.511Z,99.90
2022-11-21T19:21:39.133Z,99.90
2022-11-21T19:24:07.013Z,99.90
2022-11-21T19:26:33.805Z,99.90
2022-11-21T19:29:00.744Z,99.90
2022-11-21T19:31:27.915Z,99.90
2022-11-21T19:33:54.637Z,99.90
2022-11-21T19:36:23.138Z,99.90
2022-11-21T19:38:51.785Z,99.90
2022-11-21T19:41:26.108Z,99.90
2022-11-21T19:43:55.133Z,99.90
2022-11-21T19:46:31.196Z,99.90
2022-11-21T19:48:58.887Z,99.90
2022-11-21T19:51:33.304Z,99.90
2022-11-21T19:54:02.174Z,99.90
2022-11-21T19:56:28.960Z,99.90
2022-11-21T19:58:56.867Z,99.90
2022-11-21T20:01:26.509Z,99.90
2022-11-21T20:03:55.827Z,99.90
2022-11-21T20:06:25.686Z,99.90
2022-11-21T20:08:55.319Z,99.90
2022-11-21T20:11:23.692Z,99.90
2022-11-21T20:13:51.256Z,99.90
2022-11-21T20:16:21.177Z,99.90
2022-11-21T20:18:48.570Z,99.90
2022-11-21T20:21:16.069Z,99.90
2022-11-21T20:23:43.132Z,99.90
2022-11-21T20:26:10.070Z,99.90
2022-11-21T20:28:37.554Z,99.90
2022-11-21T20:31:05.140Z,99.90
2022-11-21T20:33:38.275Z,99.90
2022-11-21T20:36:18.653Z,99.90
2022-11-21T20:38:56.840Z,99.90
2022-11-21T20:41:35.453Z,99.90
2022-11-21T20:46:52.023Z,99.90
2022-11-21T20:49:18.776Z,99.90
2022-11-21T20:54:32.626Z,99.90
2022-11-21T20:56:59.482Z,99.90
2022-11-21T20:59:26.560Z,99.90
2022-11-21T21:01:53.401Z,99.90
2022-11-21T21:04:20.636Z,99.90
2022-11-21T21:06:47.319Z,99.90
2022-11-21T21:09:14.296Z,99.90
2022-11-21T21:11:56.450Z,99.90
2022-11-21T21:14:23.211Z,99.90
2022-11-21T21:16:50.493Z,99.90
2022-11-21T21:19:17.854Z,99.90
2022-11-21T21:21:44.855Z,99.90
2022-11-21T21:24:12.281Z,99.90
2022-11-21T21:26:47.710Z,99.90
2022-11-21T21:29:20.068Z,99.90
2022-11-21T21:31:51.560Z,99.90
2022-11-21T21:34:22.831Z,99.90
2022-11-21T21:36:50.815Z,99.90
2022-11-21T21:39:17.754Z,99.90
2022-11-21T21:41:46.182Z,99.90
2022-11-21T21:44:14.036Z,99.90
2022-11-21T21:46:40.888Z,99.90
2022-11-21T21:49:08.083Z,99.90
2022-11-21T21:51:37.176Z,99.90
2022-11-21T21:54:04.882Z,99.90
2022-11-21T21:56:32.152Z,99.90
2022-11-21T21:58:59.454Z,99.90
2022-11-21T22:01:29.382Z,99.90
2022-11-21T22:04:01.467Z,99.90
2022-11-21T22:06:28.652Z,99.90
2022-11-21T22:08:56.168Z,99.90
2022-11-21T22:11:29.389Z,99.90
2022-11-21T22:13:59.210Z,99.90
2022-11-21T22:16:26.311Z,99.90
2022-11-21T22:18:53.652Z,99.90
2022-11-21T22:21:25.135Z,99.90
2022-11-21T22:26:39.011Z,99.90
2022-11-21T22:29:06.009Z,99.90
2022-11-21T22:31:33.160Z,99.90
2022-11-21T22:34:00.621Z,99.90
2022-11-21T22:36:27.383Z,99.90
2022-11-21T22:38:55.562Z,99.90
2022-11-21T22:41:24.964Z,99.90
2022-11-21T22:43:54.680Z,99.90
2022-11-21T22:46:22.712Z,99.90
2022-11-21T22:48:50.106Z,99.90
2022-11-21T22:51:22.897Z,99.90
2022-11-21T22:53:50.474Z,99.90
2022-11-21T22:56:19.605Z,99.90
2022-11-21T22:58:46.643Z,99.90
2022-11-21T23:01:20.084Z,99.90
2022-11-21T23:03:47.632Z,99.90
2022-11-21T23:06:16.911Z,99.90
2022-11-21T23:08:44.132Z,99.90
2022-11-21T23:11:16.909Z,99.90
2022-11-21T23:13:45.473Z,99.90
2022-11-21T23:16:13.174Z,99.90
2022-11-21T23:18:40.490Z,99.90
2022-11-21T23:21:08.413Z,99.90
2022-11-21T23:23:35.813Z,99.90
2022-11-21T23:26:03.733Z,99.90
2022-11-21T23:28:31.102Z,99.90
2022-11-21T23:30:58.093Z,99.90
2022-11-21T23:33:24.909Z,99.90
2022-11-21T23:35:51.724Z,99.90
2022-11-21T23:38:19.441Z,99.90
2022-11-21T23:40:47.818Z,99.90
2022-11-21T23:43:15.487Z,99.90
2022-11-21T23:45:42.588Z,99.90
2022-11-21T23:48:09.313Z,99.90
2022-11-21T23:50:36.127Z,99.90
2022-11-21T23:53:03.338Z,99.90
2022-11-21T23:55:30.178Z,99.90
2022-11-21T23:57:56.957Z,99.90
